createdAt,value
2023-04-10T00:00:49.929Z,98.35
2023-04-10T00:01:50.161Z,98.35
2023-04-10T00:02:50.145Z,98.56
2023-04-10T00:03:50.058Z,98.35
2023-04-10T00:04:50.130Z,98.39
2023-04-10T00:05:49.898Z,99.02
2023-04-10T00:06:49.918Z,98.71
2023-04-10T00:07:49.868Z,99.02
2023-04-10T00:08:50.899Z,99.23
2023-04-10T00:09:49.883Z,98.96
2023-04-10T00:10:49.932Z,98.96
2023-04-10T00:11:49.852Z,98.92
2023-04-10T00:12:49.850Z,98.82
2023-04-10T00:13:49.871Z,99.07
2023-04-10T00:14:49.843Z,98.86
2023-04-10T00:15:49.818Z,99.07
2023-04-10T00:16:49.908Z,99.07
2023-04-10T00:17:49.865Z,99.80
2023-04-10T00:18:49.871Z,99.80
2023-04-10T00:19:49.902Z,99.69
2023-04-10T00:20:49.795Z,99.99
2023-04-10T00:21:49.841Z,99.84
2023-04-10T00:22:49.785Z,99.99
2023-04-10T00:23:49.803Z,99.99
2023-04-10T00:24:49.777Z,99.84
2023-04-10T00:25:49.758Z,99.95
2023-04-10T00:26:49.769Z,99.99
2023-04-10T00:27:49.755Z,99.90
2023-04-10T00:28:49.744Z,99.95
2023-04-10T00:29:49.749Z,99.99
2023-04-10T00:30:49.708Z,99.95
2023-04-10T00:31:49.748Z,99.84
2023-04-10T00:32:49.791Z,99.99
2023-04-10T00:33:49.702Z,99.99
2023-04-10T00:34:49.717Z,99.99
2023-04-10T00:35:49.716Z,99.99
2023-04-10T00:36:49.683Z,99.99
2023-04-10T00:37:49.687Z,99.99
2023-04-10T00:38:49.669Z,99.99
2023-04-10T00:39:49.649Z,99.99
2023-04-10T00:40:49.670Z,99.99
2023-04-10T00:41:49.606Z,99.99
2023-04-10T00:42:49.647Z,99.99
2023-04-10T00:43:49.628Z,99.99
2023-04-10T00:44:49.905Z,99.99
2023-04-10T00:45:50.853Z,99.99
2023-04-10T00:46:50.644Z,99.99
2023-04-10T00:47:49.676Z,99.99
2023-04-10T00:48:49.575Z,99.99
2023-04-10T00:49:49.601Z,99.99
2023-04-10T00:50:49.547Z,99.99
2023-04-10T00:51:49.572Z,99.99
2023-04-10T00:52:49.559Z,99.99
2023-04-10T00:53:49.548Z,99.99
2023-04-10T00:54:49.548Z,99.99
2023-04-10T00:55:50.336Z,99.99
2023-04-10T00:56:49.574Z,99.99
2023-04-10T00:57:49.541Z,99.99
2023-04-10T00:58:50.279Z,99.99
2023-04-10T00:59:49.472Z,99.57
2023-04-10T01:00:49.487Z,99.89
2023-04-10T01:01:49.583Z,99.99
2023-04-10T01:02:49.580Z,99.99
2023-04-10T01:03:49.617Z,99.99
2023-04-10T01:04:49.507Z,99.99
2023-04-10T01:05:49.480Z,99.99
2023-04-10T01:06:50.464Z,99.99
2023-04-10T01:07:49.453Z,99.99
2023-04-10T01:08:49.437Z,99.99
2023-04-10T01:09:49.418Z,99.99
2023-04-10T01:10:49.416Z,99.99
2023-04-10T01:11:49.450Z,99.99
2023-04-10T01:12:49.477Z,99.99
2023-04-10T01:13:49.425Z,99.99
2023-04-10T01:14:49.473Z,99.99
2023-04-10T01:15:50.232Z,99.99
2023-04-10T01:16:50.369Z,99.99
2023-04-10T01:17:50.368Z,99.99
2023-04-10T01:18:49.409Z,99.99
2023-04-10T01:19:49.374Z,99.99
2023-04-10T01:20:49.328Z,99.99
2023-04-10T01:21:49.319Z,99.99
2023-04-10T01:22:49.356Z,99.99
2023-04-10T01:24:23.428Z,99.99
2023-04-10T01:24:49.284Z,99.99
2023-04-10T01:26:21.268Z,99.99
2023-04-10T01:26:49.283Z,99.99
2023-04-10T01:28:21.778Z,99.99
2023-04-10T01:28:49.246Z,99.99
2023-04-10T01:29:49.344Z,99.99
2023-04-10T01:30:50.225Z,99.99
2023-04-10T01:31:49.212Z,99.99
2023-04-10T01:32:49.275Z,99.99
2023-04-10T01:33:49.197Z,99.99
2023-04-10T01:34:49.203Z,99.99
2023-04-10T01:35:49.258Z,99.99
2023-04-10T01:36:49.211Z,99.99
2023-04-10T01:37:49.168Z,99.99
2023-04-10T01:38:49.214Z,99.99
2023-04-10T01:39:49.165Z,99.99
2023-04-10T01:40:49.164Z,99.99
2023-04-10T01:41:49.195Z,99.99
2023-04-10T01:42:49.159Z,99.99
2023-04-10T01:43:49.197Z,99.99
2023-04-10T01:44:49.117Z,99.99
2023-04-10T01:45:49.136Z,99.99
2023-04-10T01:46:49.201Z,99.99
2023-04-10T01:47:49.151Z,99.99
2023-04-10T01:48:49.087Z,99.99
2023-04-10T01:49:49.161Z,99.99
2023-04-10T01:50:49.084Z,99.99
2023-04-10T01:51:49.157Z,99.99
2023-04-10T01:52:49.053Z,99.99
2023-04-10T01:53:52.031Z,99.99
2023-04-10T01:54:49.159Z,99.99
2023-04-10T01:55:49.967Z,99.99
2023-04-10T01:56:49.108Z,99.99
2023-04-10T01:57:49.073Z,99.99
2023-04-10T01:58:49.098Z,99.99
2023-04-10T01:59:49.064Z,99.99
2023-04-10T02:00:49.021Z,99.99
2023-04-10T02:01:49.196Z,99.99
2023-04-10T02:02:50.799Z,99.99
2023-04-10T02:03:49.202Z,99.99
2023-04-10T02:04:49.055Z,99.99
2023-04-10T02:05:48.993Z,99.99
2023-04-10T02:06:50.242Z,99.99
2023-04-10T02:07:50.334Z,99.99
2023-04-10T02:08:49.015Z,99.99
2023-04-10T02:09:50.881Z,99.99
2023-04-10T02:10:48.940Z,99.99
2023-04-10T02:11:49.182Z,99.99
2023-04-10T02:12:48.976Z,99.99
2023-04-10T02:13:48.948Z,99.99
2023-04-10T02:14:48.911Z,99.99
2023-04-10T02:15:48.948Z,99.99
2023-04-10T02:16:49.876Z,99.99
2023-04-10T02:17:49.088Z,99.99
2023-04-10T02:18:48.941Z,99.99
2023-04-10T02:19:48.978Z,99.99
2023-04-10T02:20:48.885Z,99.99
2023-04-10T02:21:48.872Z,99.99
2023-04-10T02:22:48.848Z,99.99
2023-04-10T02:23:48.885Z,99.99
2023-04-10T02:24:48.835Z,99.99
2023-04-10T02:25:49.759Z,99.99
2023-04-10T02:26:48.841Z,99.99
2023-04-10T02:27:48.848Z,99.99
2023-04-10T02:28:48.826Z,99.99
2023-04-10T02:29:48.857Z,99.99
2023-04-10T02:30:48.862Z,99.99
2023-04-10T02:31:48.777Z,99.99
2023-04-10T02:32:48.866Z,99.99
2023-04-10T02:33:48.789Z,99.99
2023-04-10T02:34:48.808Z,99.99
2023-04-10T02:35:48.769Z,99.99
2023-04-10T02:36:48.736Z,99.99
2023-04-10T02:37:48.788Z,99.99
2023-04-10T02:38:48.836Z,99.99
2023-04-10T02:39:48.765Z,99.99
2023-04-10T02:40:48.730Z,99.99
2023-04-10T02:41:48.763Z,99.99
2023-04-10T02:42:48.700Z,99.99
2023-04-10T02:43:48.729Z,99.99
2023-04-10T02:44:49.692Z,99.99
2023-04-10T02:45:48.702Z,99.99
2023-04-10T02:46:48.715Z,99.99
2023-04-10T02:47:48.745Z,99.99
2023-04-10T02:48:48.704Z,99.99
2023-04-10T02:49:48.663Z,99.99
2023-04-10T02:50:48.665Z,99.99
2023-04-10T02:51:48.639Z,99.99
2023-04-10T02:52:48.630Z,99.99
2023-04-10T02:53:48.624Z,99.99
2023-04-10T02:54:48.764Z,99.99
2023-04-10T02:55:48.592Z,99.99
2023-04-10T02:56:48.666Z,99.99
2023-04-10T02:57:48.620Z,99.99
2023-04-10T02:58:48.569Z,99.99
2023-04-10T02:59:48.564Z,99.99
2023-04-10T03:00:48.572Z,99.99
2023-04-10T03:01:48.644Z,99.99
2023-04-10T03:02:48.759Z,99.99
2023-04-10T03:03:48.601Z,99.99
2023-04-10T03:04:48.630Z,99.99
2023-04-10T03:05:48.517Z,99.99
2023-04-10T03:06:48.547Z,99.99
2023-04-10T03:07:48.550Z,99.99
2023-04-10T03:08:48.664Z,99.99
2023-04-10T03:09:48.532Z,99.99
2023-04-10T03:10:48.543Z,99.99
2023-04-10T03:11:48.504Z,99.99
2023-04-10T03:12:48.537Z,99.99
2023-04-10T03:13:48.456Z,99.99
2023-04-10T03:14:48.481Z,99.99
2023-04-10T03:15:48.455Z,99.99
2023-04-10T03:16:49.368Z,99.99
2023-04-10T03:17:48.573Z,99.99
2023-04-10T03:18:48.474Z,99.99
2023-04-10T03:19:48.411Z,99.99
2023-04-10T03:20:48.415Z,99.99
2023-04-10T03:21:48.468Z,99.99
2023-04-10T03:22:48.389Z,99.99
2023-04-10T03:23:48.410Z,99.99
2023-04-10T03:24:48.414Z,99.99
2023-04-10T03:25:48.421Z,99.99
2023-04-10T03:26:48.357Z,99.99
2023-04-10T03:27:48.444Z,99.99
2023-04-10T03:28:49.202Z,99.99
2023-04-10T03:29:48.367Z,99.99
2023-04-10T03:30:48.349Z,99.99
2023-04-10T03:31:48.387Z,99.99
2023-04-10T03:32:48.359Z,99.99
2023-04-10T03:33:48.450Z,99.99
2023-04-10T03:34:48.311Z,99.99
2023-04-10T03:35:49.138Z,99.99
2023-04-10T03:36:48.276Z,99.99
2023-04-10T03:37:48.387Z,99.99
2023-04-10T03:38:48.366Z,99.99
2023-04-10T03:39:48.293Z,99.99
2023-04-10T03:40:48.241Z,99.99
2023-04-10T03:41:48.250Z,99.99
2023-04-10T03:42:48.325Z,99.99
2023-04-10T03:43:48.241Z,99.99
2023-04-10T03:44:49.853Z,99.99
2023-04-10T03:45:48.198Z,99.99
2023-04-10T03:46:48.301Z,99.99
2023-04-10T04:02:30.068Z,99.99
2023-04-10T04:03:30.120Z,99.99
2023-04-10T04:04:30.058Z,99.99
2023-04-10T04:05:31.061Z,99.99
2023-04-10T04:06:31.054Z,99.99
2023-04-10T04:07:31.079Z,99.99
2023-04-10T04:08:32.029Z,99.99
2023-04-10T04:09:31.568Z,99.99
2023-04-10T04:10:31.043Z,99.99
2023-04-10T04:11:31.004Z,99.99
2023-04-10T04:12:31.675Z,99.99
2023-04-10T04:13:30.991Z,99.99
2023-04-10T04:14:31.992Z,99.99
2023-04-10T04:15:30.985Z,99.99
2023-04-10T04:16:31.018Z,99.99
2023-04-10T04:17:31.004Z,99.99
2023-04-10T04:18:30.980Z,99.99
2023-04-10T04:19:30.969Z,99.99
2023-04-10T04:20:31.649Z,99.99
2023-04-10T04:21:30.930Z,99.99
2023-04-10T04:22:30.925Z,99.99
2023-04-10T04:23:30.982Z,99.99
2023-04-10T04:24:30.918Z,99.99
2023-04-10T04:25:30.988Z,99.99
2023-04-10T04:26:30.898Z,99.99
2023-04-10T04:27:30.882Z,99.99
2023-04-10T04:28:30.893Z,99.99
2023-04-10T04:29:30.884Z,99.99
2023-04-10T04:30:30.883Z,99.99
2023-04-10T04:31:31.606Z,99.99
2023-04-10T04:32:30.897Z,99.99
2023-04-10T04:33:30.900Z,99.99
2023-04-10T04:34:30.853Z,99.99
2023-04-10T04:35:31.559Z,99.99
2023-04-10T04:36:30.865Z,99.99
2023-04-10T04:37:30.821Z,99.99
2023-04-10T04:38:30.828Z,99.99
2023-04-10T04:39:30.838Z,99.99
2023-04-10T04:40:30.831Z,99.99
2023-04-10T04:41:30.833Z,99.99
2023-04-10T04:42:30.802Z,99.99
2023-04-10T04:43:30.793Z,99.99
2023-04-10T04:44:30.819Z,99.99
2023-04-10T04:45:30.776Z,99.99
2023-04-10T04:46:30.783Z,99.99
2023-04-10T04:47:30.791Z,99.99
2023-04-10T04:48:30.740Z,99.99
2023-04-10T04:49:30.761Z,99.99
2023-04-10T04:50:30.756Z,99.99
2023-04-10T04:51:30.713Z,99.99
2023-04-10T04:52:30.753Z,99.99
2023-04-10T04:53:30.757Z,99.99
2023-04-10T04:54:30.710Z,99.99
2023-04-10T04:55:30.717Z,99.99
2023-04-10T04:56:30.708Z,99.99
2023-04-10T04:57:30.677Z,99.99
2023-04-10T04:58:30.681Z,99.99
2023-04-10T04:59:30.668Z,99.99
2023-04-10T05:00:30.709Z,99.99
2023-04-10T05:01:30.697Z,99.99
2023-04-10T05:02:30.804Z,99.99
2023-04-10T05:03:30.829Z,99.99
2023-04-10T05:04:30.768Z,99.99
2023-04-10T05:05:30.729Z,99.99
2023-04-10T05:06:30.601Z,99.99
2023-04-10T05:07:30.600Z,99.99
2023-04-10T05:08:30.609Z,99.99
2023-04-10T05:09:30.573Z,99.99
2023-04-10T05:10:30.586Z,99.99
2023-04-10T05:11:30.610Z,99.99
2023-04-10T05:12:30.598Z,99.99
2023-04-10T05:13:30.553Z,99.99
2023-04-10T05:14:30.559Z,99.99
2023-04-10T05:15:30.589Z,99.99
2023-04-10T05:16:31.183Z,99.99
2023-04-10T05:17:30.570Z,99.99
2023-04-10T05:18:30.641Z,99.99
2023-04-10T05:19:30.545Z,99.99
2023-04-10T05:20:30.516Z,99.99
2023-04-10T05:21:30.483Z,99.99
2023-04-10T05:22:30.507Z,99.99
2023-04-10T05:23:30.484Z,99.51
2023-04-10T05:24:30.479Z,99.46
2023-04-10T05:25:30.455Z,99.67
2023-04-10T05:26:30.493Z,98.63
2023-04-10T05:27:30.435Z,98.17
2023-04-10T05:28:30.446Z,97.92
2023-04-10T05:29:30.445Z,96.98
2023-04-10T05:30:30.454Z,96.31
2023-04-10T05:31:30.562Z,94.82
2023-04-10T05:32:30.505Z,94.36
2023-04-10T05:33:30.408Z,92.69
2023-04-10T05:34:30.460Z,91.72
2023-04-10T05:35:30.471Z,91.53
2023-04-10T05:36:30.388Z,92.05
2023-04-10T05:37:30.459Z,90.08
2023-04-10T05:38:30.387Z,89.46
2023-04-10T05:39:30.383Z,88.48
2023-04-10T05:40:30.387Z,87.97
2023-04-10T05:41:30.369Z,88.65
2023-04-10T05:42:31.027Z,88.40
2023-04-10T05:43:30.343Z,87.99
2023-04-10T05:44:31.075Z,86.81
2023-04-10T05:45:30.383Z,87.12
2023-04-10T05:46:30.434Z,86.36
2023-04-10T05:47:30.313Z,84.91
2023-04-10T05:48:30.345Z,85.84
2023-04-10T05:49:30.306Z,85.08
2023-04-10T05:50:30.674Z,84.15
2023-04-10T05:51:31.290Z,84.87
2023-04-10T05:52:31.765Z,83.55
2023-04-10T05:53:30.266Z,82.31
2023-04-10T05:54:30.281Z,81.90
2023-04-10T05:55:30.286Z,81.38
2023-04-10T05:56:30.296Z,81.07
2023-04-10T05:57:30.257Z,81.81
2023-04-10T05:58:30.324Z,83.40
2023-04-10T05:59:30.221Z,83.87
2023-04-10T06:00:30.423Z,83.05
2023-04-10T06:01:31.238Z,83.63
2023-04-10T06:02:30.330Z,83.04
2023-04-10T06:03:30.443Z,81.10
2023-04-10T06:04:31.903Z,79.44
2023-04-10T06:05:30.226Z,78.07
2023-04-10T06:06:30.167Z,76.35
2023-04-10T06:07:31.156Z,74.98
2023-04-10T06:08:30.178Z,76.93
2023-04-10T06:09:30.742Z,76.56
2023-04-10T06:10:30.198Z,76.59
2023-04-10T06:11:30.136Z,75.21
2023-04-10T06:12:31.145Z,72.61
2023-04-10T06:13:30.119Z,72.51
2023-04-10T06:14:31.323Z,69.84
2023-04-10T06:15:30.355Z,70.67
2023-04-10T06:16:30.316Z,70.26
2023-04-10T06:17:30.760Z,70.39
2023-04-10T06:18:30.119Z,71.01
2023-04-10T06:19:30.121Z,71.55
2023-04-10T06:20:30.576Z,70.97
2023-04-10T06:21:30.078Z,70.12
2023-04-10T06:22:30.041Z,69.20
2023-04-10T06:23:30.088Z,68.85
2023-04-10T06:24:30.088Z,70.90
2023-04-10T06:25:30.270Z,72.20
2023-04-10T06:26:30.583Z,71.69
2023-04-10T06:27:30.033Z,69.27
2023-04-10T06:28:30.142Z,69.71
2023-04-10T06:29:30.432Z,68.38
2023-04-10T06:30:30.077Z,67.30
2023-04-10T06:31:29.999Z,65.66
2023-04-10T06:32:30.042Z,68.00
2023-04-10T06:33:29.978Z,70.15
2023-04-10T06:34:30.000Z,69.27
2023-04-10T06:35:29.968Z,68.45
2023-04-10T06:36:29.932Z,68.76
2023-04-10T06:37:30.021Z,69.16
2023-04-10T06:38:29.934Z,72.10
2023-04-10T06:39:29.938Z,71.83
2023-04-10T06:40:29.930Z,72.31
2023-04-10T06:41:29.890Z,72.03
2023-04-10T06:42:30.176Z,72.61
2023-04-10T06:43:29.871Z,72.78
2023-04-10T06:44:30.071Z,72.34
2023-04-10T06:45:29.877Z,74.15
2023-04-10T06:46:29.980Z,75.15
2023-04-10T06:47:30.520Z,73.02
2023-04-10T06:48:29.847Z,73.61
2023-04-10T06:49:29.895Z,75.52
2023-04-10T06:50:31.595Z,75.59
2023-04-10T06:51:29.830Z,76.25
2023-04-10T06:52:30.598Z,76.21
2023-04-10T06:53:29.837Z,78.21
2023-04-10T06:54:29.792Z,78.65
2023-04-10T06:55:30.084Z,76.18
2023-04-10T06:56:30.683Z,75.83
2023-04-10T06:57:29.913Z,73.88
2023-04-10T06:58:29.773Z,72.00
2023-04-10T06:59:29.770Z,68.87
2023-04-10T07:00:29.798Z,66.36
2023-04-10T07:01:29.760Z,65.40
2023-04-10T07:02:29.896Z,68.22
2023-04-10T07:03:29.755Z,69.81
2023-04-10T07:04:29.715Z,71.18
2023-04-10T07:05:30.002Z,69.75
2023-04-10T07:06:29.747Z,69.68
2023-04-10T07:07:29.712Z,68.73
2023-04-10T07:08:29.714Z,67.87
2023-04-10T07:09:29.710Z,70.56
2023-04-10T07:10:29.684Z,71.93
2023-04-10T07:11:29.696Z,72.75
2023-04-10T07:12:29.702Z,73.68
2023-04-10T07:13:30.166Z,75.08
2023-04-10T07:14:29.665Z,73.88
2023-04-10T07:15:29.644Z,72.41
2023-04-10T07:16:29.717Z,71.83
2023-04-10T07:17:29.848Z,71.15
2023-04-10T07:18:29.666Z,67.62
2023-04-10T07:19:29.626Z,65.08
2023-04-10T07:20:29.616Z,64.40
2023-04-10T07:21:29.624Z,64.70
2023-04-10T07:22:29.613Z,64.57
2023-04-10T07:23:29.634Z,63.57
2023-04-10T07:24:29.586Z,60.53
2023-04-10T07:25:29.606Z,60.13
2023-04-10T07:26:29.553Z,60.47
2023-04-10T07:27:29.556Z,59.46
2023-04-10T07:28:29.651Z,59.79
2023-04-10T07:29:29.557Z,61.01
2023-04-10T07:30:29.534Z,60.35
2023-04-10T07:31:29.560Z,60.68
2023-04-10T07:32:30.623Z,60.59
2023-04-10T07:33:29.546Z,63.48
2023-04-10T07:34:29.530Z,65.84
2023-04-10T07:35:29.522Z,66.94
2023-04-10T07:36:29.515Z,66.36
2023-04-10T07:37:29.480Z,67.58
2023-04-10T07:38:29.490Z,66.83
2023-04-10T07:39:29.467Z,66.19
2023-04-10T07:40:29.526Z,65.56
2023-04-10T07:41:29.469Z,64.07
2023-04-10T07:42:29.445Z,64.49
2023-04-10T07:43:29.517Z,61.74
2023-04-10T07:44:29.546Z,61.27
2023-04-10T07:45:29.533Z,59.92
2023-04-10T07:46:29.455Z,59.34
2023-04-10T07:47:30.423Z,59.88
2023-04-10T07:48:29.402Z,61.88
2023-04-10T07:49:29.388Z,63.43
2023-04-10T07:50:29.427Z,63.54
2023-04-10T07:51:29.394Z,64.31
2023-04-10T07:52:29.544Z,64.95
2023-04-10T07:53:29.557Z,65.39
2023-04-10T07:54:29.545Z,64.22
2023-04-10T07:55:29.523Z,63.14
2023-04-10T07:56:29.475Z,62.81
2023-04-10T07:57:29.356Z,61.13
2023-04-10T07:58:29.380Z,61.30
2023-04-10T07:59:29.355Z,61.02
2023-04-10T08:00:29.466Z,63.04
2023-04-10T08:01:29.434Z,63.11
2023-04-10T08:02:29.473Z,63.52
2023-04-10T08:03:29.463Z,65.03
2023-04-10T08:04:29.456Z,65.70
2023-04-10T08:05:29.454Z,66.15
2023-04-10T08:06:29.315Z,66.29
2023-04-10T08:07:29.268Z,64.40
2023-04-10T08:08:29.366Z,64.47
2023-04-10T08:09:29.277Z,62.66
2023-04-10T08:10:30.254Z,60.80
2023-04-10T08:11:29.231Z,59.00
2023-04-10T08:12:29.245Z,57.43
2023-04-10T08:13:29.232Z,56.67
2023-04-10T08:14:29.227Z,56.38
2023-04-10T08:15:29.220Z,54.68
2023-04-10T08:16:29.243Z,55.43
2023-04-10T08:17:29.212Z,56.62
2023-04-10T08:18:30.135Z,58.12
2023-04-10T08:19:29.170Z,58.91
2023-04-10T08:20:29.327Z,59.16
2023-04-10T08:21:29.191Z,59.11
2023-04-10T08:22:29.156Z,56.83
2023-04-10T08:23:29.294Z,56.37
2023-04-10T08:24:29.139Z,56.07
2023-04-10T08:25:29.199Z,54.53
2023-04-10T08:26:29.198Z,52.17
2023-04-10T08:27:29.156Z,52.19
2023-04-10T08:28:29.121Z,52.24
2023-04-10T08:29:29.230Z,53.97
2023-04-10T08:30:29.231Z,55.79
2023-04-10T08:31:29.238Z,58.52
2023-04-10T08:32:29.560Z,60.62
2023-04-10T08:33:29.079Z,62.30
2023-04-10T08:34:29.156Z,63.68
2023-04-10T08:35:29.623Z,63.08
2023-04-10T08:36:29.727Z,61.47
2023-04-10T08:37:33.590Z,59.35
2023-04-10T08:38:30.064Z,59.88
2023-04-10T08:39:29.045Z,58.58
2023-04-10T08:40:29.025Z,55.73
2023-04-10T08:41:29.102Z,52.32
2023-04-10T08:42:29.020Z,50.29
2023-04-10T08:43:29.186Z,50.26
2023-04-10T08:44:29.054Z,50.42
2023-04-10T08:45:29.041Z,49.19
2023-04-10T08:46:29.036Z,50.56
2023-04-10T08:47:29.714Z,52.44
2023-04-10T08:48:29.057Z,50.59
2023-04-10T08:49:29.274Z,49.63
2023-04-10T08:50:29.691Z,50.36
2023-04-10T08:51:28.960Z,50.42
2023-04-10T08:52:28.943Z,50.42
2023-04-10T08:53:28.942Z,48.57
2023-04-10T08:54:28.939Z,50.34
2023-04-10T08:55:28.954Z,49.54
2023-04-10T08:56:28.891Z,51.66
2023-04-10T08:57:28.972Z,53.57
2023-04-10T08:58:29.014Z,52.97
2023-04-10T08:59:28.930Z,50.73
2023-04-10T09:00:29.892Z,50.66
2023-04-10T09:01:28.890Z,51.04
2023-04-10T09:02:29.096Z,50.54
2023-04-10T09:03:29.031Z,50.16
2023-04-10T09:04:28.958Z,50.74
2023-04-10T09:05:28.906Z,50.66
2023-04-10T09:06:28.993Z,50.71
2023-04-10T09:07:28.879Z,53.12
2023-04-10T09:08:28.838Z,53.05
2023-04-10T09:09:28.830Z,54.76
2023-04-10T09:10:28.855Z,56.48
2023-04-10T09:11:28.793Z,53.34
2023-04-10T09:12:28.815Z,52.80
2023-04-10T09:13:28.812Z,52.55
2023-04-10T09:14:28.871Z,50.60
2023-04-10T09:15:28.905Z,52.47
2023-04-10T09:16:28.860Z,50.45
2023-04-10T09:17:28.923Z,52.14
2023-04-10T09:18:29.867Z,53.98
2023-04-10T09:19:28.773Z,53.47
2023-04-10T09:20:28.758Z,51.08
2023-04-10T09:21:28.829Z,53.25
2023-04-10T09:22:28.810Z,52.57
2023-04-10T09:23:28.724Z,51.16
2023-04-10T09:24:28.733Z,50.45
2023-04-10T09:25:28.851Z,50.73
2023-04-10T09:26:28.745Z,50.35
2023-04-10T09:27:28.705Z,52.36
2023-04-10T09:28:28.690Z,52.49
2023-04-10T09:29:28.722Z,52.56
2023-04-10T09:30:28.688Z,51.84
2023-04-10T09:31:28.759Z,52.42
2023-04-10T09:32:28.674Z,51.66
2023-04-10T09:33:28.793Z,50.57
2023-04-10T09:34:28.621Z,51.08
2023-04-10T09:35:28.710Z,50.88
2023-04-10T09:36:28.635Z,50.32
2023-04-10T09:37:28.641Z,50.65
2023-04-10T09:38:29.516Z,51.15
2023-04-10T09:39:28.596Z,51.56
2023-04-10T09:40:28.635Z,50.82
2023-04-10T09:41:28.595Z,51.10
2023-04-10T09:42:28.613Z,51.00
2023-04-10T09:43:28.605Z,50.57
2023-04-10T09:44:28.558Z,49.59
2023-04-10T09:45:29.375Z,49.07
2023-04-10T09:46:28.702Z,50.40
2023-04-10T09:47:28.634Z,50.45
2023-04-10T09:48:28.561Z,50.33
2023-04-10T09:49:29.279Z,50.68
2023-04-10T09:51:01.176Z,50.25
2023-04-10T09:51:28.494Z,49.60
2023-04-10T09:52:28.502Z,51.00
2023-04-10T09:53:28.528Z,51.43
2023-04-10T09:54:28.561Z,50.70
2023-04-10T09:55:28.501Z,50.60
2023-04-10T09:56:28.505Z,51.00
2023-04-10T09:57:28.533Z,51.71
2023-04-10T09:58:28.499Z,51.56
2023-04-10T09:59:28.593Z,50.65
2023-04-10T10:00:28.529Z,51.34
2023-04-10T10:01:28.470Z,50.56
2023-04-10T10:02:28.541Z,51.03
2023-04-10T10:03:28.585Z,50.75
2023-04-10T10:04:28.423Z,50.82
2023-04-10T10:05:28.412Z,50.73
2023-04-10T10:06:28.448Z,51.03
2023-04-10T10:07:29.411Z,51.64
2023-04-10T10:08:28.366Z,51.78
2023-04-10T10:09:29.372Z,52.67
2023-04-10T10:10:29.365Z,52.64
2023-04-10T10:11:28.406Z,50.57
2023-04-10T10:12:29.087Z,51.10
2023-04-10T10:13:28.326Z,52.54
2023-04-10T10:14:28.353Z,51.20
2023-04-10T10:15:28.336Z,50.56
2023-04-10T10:16:28.412Z,50.96
2023-04-10T10:17:28.331Z,50.90
2023-04-10T10:18:28.337Z,51.45
2023-04-10T10:19:28.299Z,51.68
2023-04-10T10:20:28.300Z,51.13
2023-04-10T10:21:28.323Z,51.15
2023-04-10T10:22:28.268Z,51.73
2023-04-10T10:23:28.332Z,50.93
2023-04-10T10:24:28.288Z,51.48
2023-04-10T10:25:28.241Z,51.28
2023-04-10T10:26:28.312Z,51.56
2023-04-10T10:27:28.257Z,51.23
2023-04-10T10:28:28.222Z,51.64
2023-04-10T10:29:28.289Z,50.47
2023-04-10T10:30:30.541Z,51.30
2023-04-10T10:31:29.274Z,51.91
2023-04-10T10:32:28.352Z,52.49
2023-04-10T10:33:28.199Z,51.18
2023-04-10T10:34:28.204Z,52.39
2023-04-10T10:35:29.987Z,51.10
2023-04-10T10:36:29.198Z,50.70
2023-04-10T10:37:28.231Z,52.39
2023-04-10T10:38:28.181Z,50.60
2023-04-10T10:39:28.150Z,50.48
2023-04-10T10:40:28.173Z,49.77
2023-04-10T10:41:28.169Z,50.48
2023-04-10T10:42:28.134Z,48.84
2023-04-10T10:43:28.133Z,49.22
2023-04-10T10:44:28.132Z,48.69
2023-04-10T10:45:28.122Z,48.17
2023-04-10T10:46:28.083Z,48.93
2023-04-10T10:47:28.203Z,46.88
2023-04-10T10:48:28.144Z,47.41
2023-04-10T10:49:28.141Z,49.07
2023-04-10T10:50:28.096Z,48.64
2023-04-10T10:51:28.159Z,48.49
2023-04-10T10:52:28.110Z,47.66
2023-04-10T10:53:28.064Z,48.39
2023-04-10T10:54:28.036Z,48.84
2023-04-10T10:55:28.014Z,48.94
2023-04-10T10:56:28.026Z,49.11
2023-04-10T10:57:28.029Z,50.67
2023-04-10T10:58:28.031Z,51.25
2023-04-10T10:59:28.060Z,50.42
2023-04-10T11:00:28.105Z,50.93
2023-04-10T11:01:28.034Z,51.15
2023-04-10T11:02:28.146Z,50.12
2023-04-10T11:03:28.337Z,50.60
2023-04-10T11:04:27.968Z,49.99
2023-04-10T11:05:27.968Z,50.32
2023-04-10T11:06:27.938Z,50.55
2023-04-10T11:07:27.953Z,51.07
2023-04-10T11:08:27.997Z,51.05
2023-04-10T11:09:27.990Z,50.73
2023-04-10T11:10:27.937Z,49.84
2023-04-10T11:11:27.981Z,51.13
2023-04-10T11:12:27.932Z,51.03
2023-04-10T11:13:27.913Z,50.32
2023-04-10T11:14:27.933Z,50.55
2023-04-10T11:15:28.258Z,51.33
2023-04-10T11:16:28.909Z,50.32
2023-04-10T11:17:27.912Z,50.30
2023-04-10T11:18:27.914Z,49.07
2023-04-10T11:19:28.091Z,48.94
2023-04-10T11:20:27.900Z,49.87
2023-04-10T11:21:27.855Z,48.96
2023-04-10T11:22:27.862Z,49.92
2023-04-10T11:23:27.896Z,51.10
2023-04-10T11:24:27.917Z,51.03
2023-04-10T11:25:27.865Z,50.55
2023-04-10T11:26:27.864Z,49.90
2023-04-10T11:27:27.986Z,50.12
2023-04-10T11:28:27.785Z,50.82
2023-04-10T11:29:27.797Z,50.62
2023-04-10T11:30:27.798Z,50.42
2023-04-10T11:31:27.838Z,50.75
2023-04-10T11:32:27.808Z,50.80
2023-04-10T11:33:27.780Z,49.87
2023-04-10T11:34:27.802Z,49.15
2023-04-10T11:35:27.866Z,48.84
2023-04-10T11:36:27.731Z,48.74
2023-04-10T11:37:27.729Z,49.82
2023-04-10T11:38:27.783Z,50.32
2023-04-10T11:39:27.728Z,50.32
2023-04-10T11:40:28.824Z,50.70
2023-04-10T11:41:27.716Z,50.48
2023-04-10T11:42:27.735Z,51.06
2023-04-10T11:43:27.740Z,50.53
2023-04-10T11:44:27.682Z,48.90
2023-04-10T11:45:29.210Z,48.79
2023-04-10T11:46:31.009Z,49.70
2023-04-10T11:47:28.699Z,48.69
2023-04-10T11:48:27.694Z,49.02
2023-04-10T11:49:27.678Z,49.02
2023-04-10T11:50:27.621Z,48.79
2023-04-10T11:51:30.304Z,48.79
2023-04-10T11:52:28.777Z,48.24
2023-04-10T11:53:27.643Z,48.94
2023-04-10T11:54:27.649Z,49.75
2023-04-10T11:55:27.611Z,50.35
2023-04-10T11:56:28.335Z,49.04
2023-04-10T11:57:27.627Z,49.82
2023-04-10T11:58:28.344Z,49.97
2023-04-10T11:59:27.578Z,50.57
2023-04-10T12:00:27.586Z,50.20
2023-04-10T12:01:27.609Z,50.95
2023-04-10T12:02:27.650Z,51.73
2023-04-10T12:03:27.741Z,51.23
2023-04-10T12:04:27.837Z,51.10
2023-04-10T12:05:27.576Z,50.68
2023-04-10T12:06:27.525Z,48.84
2023-04-10T12:07:27.617Z,49.97
2023-04-10T12:08:27.546Z,50.27
2023-04-10T12:09:27.563Z,51.08
2023-04-10T12:10:27.558Z,49.62
2023-04-10T12:11:27.505Z,50.76
2023-04-10T12:12:27.609Z,50.81
2023-04-10T12:13:27.479Z,50.31
2023-04-10T12:14:27.498Z,50.10
2023-04-10T12:15:28.351Z,48.90
2023-04-10T12:16:27.573Z,48.84
2023-04-10T12:17:27.473Z,50.30
2023-04-10T12:18:27.520Z,50.70
2023-04-10T12:19:27.403Z,50.57
2023-04-10T12:20:27.431Z,50.15
2023-04-10T12:21:27.438Z,48.94
2023-04-10T12:22:59.333Z,48.96
2023-04-10T12:23:27.436Z,50.42
2023-04-10T12:24:27.416Z,50.52
2023-04-10T12:25:27.353Z,50.55
2023-04-10T12:26:27.397Z,50.62
2023-04-10T12:27:27.377Z,51.51
2023-04-10T12:28:27.341Z,50.35
2023-04-10T12:29:27.358Z,48.54
2023-04-10T12:30:27.387Z,50.33
2023-04-10T12:31:27.522Z,49.82
2023-04-10T12:32:27.762Z,50.65
2023-04-10T12:33:27.352Z,50.88
2023-04-10T12:34:28.330Z,50.35
2023-04-10T12:35:27.352Z,49.95
2023-04-10T12:36:27.309Z,48.92
2023-04-10T12:37:27.301Z,50.05
2023-04-10T12:38:27.845Z,50.37
2023-04-10T12:39:27.302Z,49.90
2023-04-10T12:40:27.298Z,50.70
2023-04-10T12:41:27.333Z,50.88
2023-04-10T12:42:27.262Z,50.48
2023-04-10T12:43:27.261Z,50.70
2023-04-10T12:44:27.269Z,50.90
2023-04-10T12:45:27.254Z,51.00
2023-04-10T12:46:27.314Z,50.57
2023-04-10T12:47:27.259Z,50.88
2023-04-10T12:48:27.898Z,49.57
2023-04-10T12:49:27.293Z,48.76
2023-04-10T12:50:27.307Z,50.88
2023-04-10T12:51:27.225Z,50.35
2023-04-10T12:52:27.855Z,48.84
2023-04-10T12:53:27.295Z,50.48
2023-04-10T12:54:27.853Z,50.48
2023-04-10T12:55:27.161Z,50.42
2023-04-10T12:56:27.851Z,50.62
2023-04-10T12:57:27.191Z,51.31
2023-04-10T12:58:27.162Z,50.40
2023-04-10T12:59:27.148Z,50.90
2023-04-10T13:00:27.124Z,50.48
2023-04-10T13:01:27.107Z,51.28
2023-04-10T13:02:27.295Z,50.78
2023-04-10T13:03:27.257Z,51.00
2023-04-10T13:04:27.278Z,50.57
2023-04-10T13:05:27.105Z,50.88
2023-04-10T13:06:27.920Z,51.38
2023-04-10T13:07:27.101Z,50.48